Time;durP1;ratioP1;P1;durP2;ratioP2;P2;SDS_P1;SDS_P2;PMS_P1;PMS_P2;Temp;Humidity;BMP_temperature;BMP_pressure;BME280_temperature;BME280_humidity;BME280_pressure;Samples;Min_cycle;Max_cycle;Signal;HPM_P1;HPM_P2
2023/12/18 00:00:13;;;;;;;;;19.00;17.25;;;;;8.26;88.38;103116.72;4975226;28;12163;-66
2023/12/18 00:02:40;;;;;;;;;16.25;14.25;;;;;8.25;88.62;103112.34;4973000;28;10953;-65
2023/12/18 00:05:08;;;;;;;;;26.25;19.00;;;;;8.29;88.60;103112.97;4973554;28;10969;-65
2023/12/18 00:07:34;;;;;;;;;21.25;17.50;;;;;8.23;88.68;103111.63;4969549;28;11063;-64
2023/12/18 00:10:01;;;;;;;;;15.00;14.50;;;;;8.26;88.82;103110.53;4970999;28;11005;-66
2023/12/18 00:12:28;;;;;;;;;15.00;14.25;;;;;8.31;88.91;103114.56;4936521;28;10879;-66
2023/12/18 00:14:54;;;;;;;;;16.50;16.25;;;;;8.27;88.79;103101.53;4973055;28;10748;-66
2023/12/18 00:17:20;;;;;;;;;14.00;11.25;;;;;8.26;89.82;103105.16;4970759;28;10844;-64
2023/12/18 00:19:47;;;;;;;;;13.00;12.50;;;;;8.32;89.37;103089.44;4950633;28;10815;-66
2023/12/18 00:22:14;;;;;;;;;19.25;16.00;;;;;8.29;89.50;103083.44;4972472;28;10791;-66
2023/12/18 00:24:40;;;;;;;;;14.50;12.25;;;;;8.37;90.02;103086.41;4973364;28;10870;-65
2023/12/18 00:27:07;;;;;;;;;16.50;15.25;;;;;8.39;89.74;103082.63;4952913;28;10830;-64
2023/12/18 00:29:33;;;;;;;;;15.00;14.50;;;;;8.39;89.41;103085.31;4975552;28;10905;-66
2023/12/18 00:32:00;;;;;;;;;15.75;15.00;;;;;8.44;89.68;103102.88;4955930;28;10803;-66
2023/12/18 00:34:26;;;;;;;;;17.75;15.00;;;;;8.46;89.22;103109.78;4973082;28;10917;-66
2023/12/18 00:36:53;;;;;;;;;18.75;16.75;;;;;8.47;89.47;103099.91;4972913;28;10797;-66
2023/12/18 00:39:19;;;;;;;;;19.50;16.50;;;;;8.46;89.28;103098.22;4968263;28;10934;-65
2023/12/18 00:41:46;;;;;;;;;27.00;21.25;;;;;8.42;89.57;103101.13;4970979;28;11697;-66
2023/12/18 00:44:12;;;;;;;;;21.50;19.00;;;;;8.42;89.46;103103.81;4967097;28;11355;-66
2023/12/18 00:46:39;;;;;;;;;15.00;13.50;;;;;8.40;89.66;103088.84;4972498;28;10719;-67
2023/12/18 00:49:05;;;;;;;;;17.75;16.75;;;;;8.39;89.68;103098.72;4971789;28;10755;-67
2023/12/18 00:51:32;;;;;;;;;14.00;12.25;;;;;8.40;89.86;103095.06;4947406;28;10678;-65
2023/12/18 00:53:58;;;;;;;;;18.50;15.00;;;;;8.40;89.63;103092.38;4955190;28;11001;-66
2023/12/18 00:56:25;;;;;;;;;11.50;11.50;;;;;8.44;89.70;103081.41;4970978;28;11540;-66
2023/12/18 00:58:53;;;;;;;;;11.75;10.75;;;;;8.40;90.20;103087.00;4972787;28;10765;-67
2023/12/18 01:01:19;;;;;;;;;14.25;9.75;;;;;8.46;90.21;103079.41;4968234;28;10676;-66
2023/12/18 01:03:45;;;;;;;;;13.00;12.25;;;;;8.46;90.25;103074.91;4968311;28;10662;-67
2023/12/18 01:06:12;;;;;;;;;8.00;7.50;;;;;8.51;89.79;103061.97;4969094;28;10552;-66
2023/12/18 01:08:38;;;;;;;;;9.75;8.50;;;;;8.50;89.83;103062.94;4971829;28;10424;-66
2023/12/18 01:11:05;;;;;;;;;6.25;6.00;;;;;8.51;90.08;103056.59;4971673;28;10401;-66
2023/12/18 01:13:31;;;;;;;;;7.25;5.75;;;;;8.54;89.91;103058.16;4949070;28;10533;-66
2023/12/18 01:15:58;;;;;;;;;9.75;7.50;;;;;8.55;89.97;103067.94;4966323;28;10529;-67
2023/12/18 01:18:25;;;;;;;;;6.75;6.75;;;;;8.59;90.14;103064.88;4971650;28;10523;-66
2023/12/18 01:20:52;;;;;;;;;5.00;5.00;;;;;8.65;89.18;103069.72;4971350;28;11209;-66
2023/12/18 01:23:18;;;;;;;;;3.50;3.00;;;;;8.55;89.62;103062.59;4975875;28;10416;-67
2023/12/18 01:25:44;;;;;;;;;5.50;5.50;;;;;8.65;90.04;103060.81;4976161;28;10374;-65
2023/12/18 01:28:11;;;;;;;;;6.50;5.50;;;;;8.63;89.50;103054.75;4972774;28;10326;-66
2023/12/18 01:30:37;;;;;;;;;5.75;3.00;;;;;8.63;89.60;103054.75;4968889;28;10273;-67
2023/12/18 01:33:04;;;;;;;;;5.00;3.00;;;;;8.62;89.85;103055.69;4961601;28;10981;-66
2023/12/18 01:35:31;;;;;;;;;5.00;3.00;;;;;8.68;89.27;103057.91;4952852;28;10296;-66
2023/12/18 01:37:57;;;;;;;;;4.00;3.00;;;;;8.73;89.69;103069.09;4971833;28;10548;-66
2023/12/18 01:40:24;;;;;;;;;3.00;3.00;;;;;8.74;89.31;103065.44;4970800;28;10265;-66
2023/12/18 01:42:50;;;;;;;;;5.25;5.00;;;;;8.70;89.32;103071.19;4964301;28;10572;-66
2023/12/18 01:45:17;;;;;;;;;7.00;5.00;;;;;8.68;89.59;103079.38;4971072;28;10666;-66
2023/12/18 01:47:44;;;;;;;;;5.25;3.75;;;;;8.76;89.16;103076.91;4960423;28;10714;-65
2023/12/18 01:50:11;;;;;;;;;12.00;9.50;;;;;8.75;89.34;103075.22;4955827;28;10443;-66
2023/12/18 01:52:39;;;;;;;;;13.75;12.00;;;;;8.73;89.02;103085.22;4952014;28;10622;-66
2023/12/18 01:55:08;;;;;;;;;15.25;12.00;;;;;8.72;89.18;103077.28;4968663;28;10589;-65
2023/12/18 01:57:35;;;;;;;;;23.00;18.50;;;;;8.66;88.73;103092.91;4971766;28;10511;-66
2023/12/18 02:00:03;;;;;;;;;18.00;17.50;;;;;8.66;88.95;103086.69;4971696;28;10841;-67
2023/12/18 02:02:30;;;;;;;;;27.50;23.25;;;;;8.54;88.93;103087.69;4966000;28;12276;-66
2023/12/18 02:04:57;;;;;;;;;27.00;23.75;;;;;8.54;89.50;103085.00;4953597;28;11018;-65
2023/12/18 02:07:26;;;;;;;;;28.50;24.00;;;;;8.54;89.29;103091.22;4956733;28;11013;-65
2023/12/18 02:09:52;;;;;;;;;25.00;23.00;;;;;8.50;89.12;103086.25;4968756;28;10939;-65
2023/12/18 02:12:18;;;;;;;;;23.00;22.00;;;;;8.48;89.54;103090.91;4954166;28;11032;-65
2023/12/18 02:14:45;;;;;;;;;35.50;31.25;;;;;8.41;89.66;103083.34;4971650;28;11062;-65
2023/12/18 02:17:11;;;;;;;;;29.50;24.25;;;;;8.42;90.08;103093.09;4951099;28;11322;-64
2023/12/18 02:19:38;;;;;;;;;31.50;26.50;;;;;8.37;89.44;103073.81;4974564;28;11131;-64
2023/12/18 02:22:05;;;;;;;;;28.00;25.00;;;;;8.36;89.74;103072.09;4955270;28;11330;-65
2023/12/18 02:24:31;;;;;;;;;31.25;27.50;;;;;8.24;90.08;103075.78;4975071;28;11914;-65
2023/12/18 02:26:59;;;;;;;;;29.00;28.00;;;;;8.30;90.00;103066.38;4971390;28;11098;-64
2023/12/18 02:29:25;;;;;;;;;22.00;22.00;;;;;8.30;90.39;103061.84;4972273;28;11271;-65
2023/12/18 02:31:51;;;;;;;;;28.00;27.00;;;;;8.25;90.25;103065.91;4975418;28;11306;-65
2023/12/18 02:34:18;;;;;;;;;26.50;22.75;;;;;8.26;90.79;103057.72;4972369;28;12268;-66
2023/12/18 02:36:45;;;;;;;;;28.75;26.00;;;;;8.30;90.89;103061.84;4954762;28;11310;-65
2023/12/18 02:39:11;;;;;;;;;25.00;21.75;;;;;8.30;90.55;103069.91;4972941;28;11362;-65
2023/12/18 02:41:38;;;;;;;;;27.50;25.25;;;;;8.29;90.21;103057.47;4957933;28;11178;-65
2023/12/18 02:44:05;;;;;;;;;28.00;26.75;;;;;8.29;90.85;103062.81;4973716;28;11272;-65
2023/12/18 02:46:31;;;;;;;;;24.00;23.50;;;;;8.26;90.35;103049.66;4969900;28;11237;-65
2023/12/18 02:48:58;;;;;;;;;24.00;23.50;;;;;8.26;90.73;103054.19;4973235;28;11321;-64
2023/12/18 02:51:25;;;;;;;;;33.25;29.50;;;;;8.20;90.85;103047.50;4974366;28;11303;-65
2023/12/18 02:53:51;;;;;;;;;34.25;28.50;;;;;8.16;91.16;103040.66;4969046;28;11352;-65
2023/12/18 02:56:18;;;;;;;;;37.00;31.75;;;;;8.13;90.92;103031.03;4940105;28;11555;-64
2023/12/18 02:58:44;;;;;;;;;35.25;30.50;;;;;8.13;91.54;103040.91;4973199;28;11667;-65
2023/12/18 03:01:11;;;;;;;;;28.00;26.25;;;;;8.16;91.09;103041.50;4974056;28;11380;-65
2023/12/18 03:03:37;;;;;;;;;32.00;30.25;;;;;8.09;91.24;103045.66;4972736;28;11556;-64
2023/12/18 03:06:04;;;;;;;;;39.75;33.00;;;;;8.07;91.92;103042.28;4972859;28;11586;-63
2023/12/18 03:08:31;;;;;;;;;34.25;30.25;;;;;8.07;91.46;103028.84;4971108;28;11596;-65
2023/12/18 03:10:57;;;;;;;;;29.75;27.25;;;;;8.09;91.95;103037.63;4973670;28;11567;-65
2023/12/18 03:13:24;;;;;;;;;29.50;28.75;;;;;8.13;91.24;103030.19;4956921;28;11668;-64
2023/12/18 03:15:50;;;;;;;;;34.00;31.75;;;;;8.14;91.72;103031.88;4974485;28;11959;-65
2023/12/18 03:18:17;;;;;;;;;31.75;28.00;;;;;8.10;92.00;103033.97;4977190;28;12146;-65
2023/12/18 03:20:43;;;;;;;;;28.50;21.75;;;;;8.14;92.09;103029.19;4976475;28;11553;-65
2023/12/18 03:23:10;;;;;;;;;25.75;21.25;;;;;8.18;91.67;103026.16;4971248;28;12038;-65
2023/12/18 03:25:36;;;;;;;;;24.50;22.00;;;;;8.21;91.83;103029.56;4980196;28;11564;-64
2023/12/18 03:28:03;;;;;;;;;22.75;22.50;;;;;8.26;91.54;103036.25;4962685;28;11238;-65
2023/12/18 03:30:29;;;;;;;;;39.75;32.50;;;;;8.22;91.32;103031.25;4967820;28;11208;-65
2023/12/18 03:32:56;;;;;;;;;29.75;26.50;;;;;8.21;91.40;103025.03;4972159;28;11556;-64
2023/12/18 03:35:23;;;;;;;;;33.50;32.75;;;;;8.19;91.14;103032.38;4974566;28;11375;-65
2023/12/18 03:37:49;;;;;;;;;27.50;26.50;;;;;8.20;91.03;103019.81;4979415;28;11578;-65
2023/12/18 03:40:16;;;;;;;;;31.75;26.75;;;;;8.21;91.36;103030.41;4974236;28;11394;-63
2023/12/18 03:42:42;;;;;;;;;40.50;36.00;;;;;8.10;91.75;103036.66;4946893;28;11202;-64
2023/12/18 03:45:09;;;;;;;;;34.75;30.75;;;;;8.09;91.48;103032.25;4958339;28;11581;-64
2023/12/18 03:47:36;;;;;;;;;32.00;29.00;;;;;8.14;91.60;103027.38;4968147;28;11543;-63
2023/12/18 03:50:03;;;;;;;;;34.75;31.00;;;;;8.11;91.79;103026.78;4940110;28;11584;-64
2023/12/18 03:52:29;;;;;;;;;24.50;24.25;;;;;8.10;91.61;103030.41;4973131;28;11602;-63
2023/12/18 03:54:56;;;;;;;;;28.25;25.00;;;;;8.13;91.30;103030.19;4967206;28;11350;-64
2023/12/18 03:57:24;;;;;;;;;30.75;27.75;;;;;8.11;91.06;103022.25;4968653;28;11598;-66
2023/12/18 03:59:50;;;;;;;;;32.25;28.50;;;;;8.11;91.66;103032.16;4967151;28;11562;-64
2023/12/18 04:02:17;;;;;;;;;39.25;33.25;;;;;8.10;91.37;103022.38;4964741;28;11586;-64
2023/12/18 04:04:44;;;;;;;;;28.00;26.50;;;;;8.10;91.66;103027.72;4954014;28;11604;-64
2023/12/18 04:07:11;;;;;;;;;34.25;30.25;;;;;8.07;91.47;103028.84;4963352;28;11570;-64
2023/12/18 04:09:38;;;;;;;;;31.50;27.50;;;;;8.03;91.51;103037.28;4974573;28;11343;-65
2023/12/18 04:12:05;;;;;;;;;34.00;31.50;;;;;7.98;91.82;103036.78;4955743;28;11251;-63
2023/12/18 04:14:31;;;;;;;;;35.75;31.50;;;;;7.96;92.13;103028.88;4972280;28;11597;-64
2023/12/18 04:16:58;;;;;;;;;33.25;29.00;;;;;7.98;91.62;103028.72;4968256;28;11581;-63
2023/12/18 04:19:24;;;;;;;;;37.75;30.25;;;;;7.99;92.20;103035.81;4972166;28;11672;-64
2023/12/18 04:21:51;;;;;;;;;39.00;34.75;;;;;7.99;92.07;103028.63;4972723;28;11672;-64
2023/12/18 04:24:18;;;;;;;;;41.25;36.75;;;;;7.95;91.83;103029.84;4953871;28;11592;-65
2023/12/18 04:26:46;;;;;;;;;33.50;32.50;;;;;7.96;92.12;103034.22;4967906;28;11719;-64
2023/12/18 04:29:13;;;;;;;;;29.25;27.75;;;;;8.02;91.61;103039.13;4970685;28;11253;-65
2023/12/18 04:31:39;;;;;;;;;33.50;30.00;;;;;8.05;92.09;103038.00;4963469;28;11605;-64
2023/12/18 04:34:06;;;;;;;;;37.00;27.75;;;;;8.02;92.07;103040.91;4964740;28;11567;-63
2023/12/18 04:36:40;;;;;;;;;32.50;29.50;;;;;7.99;92.10;103039.34;4967947;28;11587;-63
2023/12/18 04:39:07;;;;;;;;;35.00;30.25;;;;;8.02;91.63;103039.13;4948655;28;12320;-61
2023/12/18 04:41:33;;;;;;;;;34.00;31.50;;;;;8.00;92.18;103035.69;4974643;28;11645;-61
2023/12/18 04:44:00;;;;;;;;;36.75;31.00;;;;;8.04;91.73;103044.34;4974073;28;11275;-64
2023/12/18 04:46:26;;;;;;;;;37.75;36.25;;;;;8.04;91.45;103039.81;4959879;28;11653;-65
2023/12/18 04:48:53;;;;;;;;;32.75;26.50;;;;;8.06;91.54;103029.84;4960892;28;11572;-64
2023/12/18 04:51:20;;;;;;;;;27.50;26.25;;;;;8.14;91.59;103032.75;4970691;28;11329;-65
2023/12/18 04:53:46;;;;;;;;;32.25;29.75;;;;;8.13;91.56;103022.97;4971842;28;11378;-65
2023/12/18 04:56:13;;;;;;;;;37.75;34.50;;;;;8.10;90.99;103022.38;4952381;28;11350;-64
2023/12/18 04:58:39;;;;;;;;;35.00;30.50;;;;;8.09;91.56;103018.00;4952796;28;11579;-66
2023/12/18 05:01:05;;;;;;;;;35.50;30.75;;;;;8.02;91.34;103006.03;4938533;28;11322;-66
2023/12/18 05:03:32;;;;;;;;;38.25;31.75;;;;;8.02;91.55;103014.09;4953693;28;11694;-65
2023/12/18 05:05:59;;;;;;;;;28.75;25.50;;;;;8.04;91.59;103025.56;4952948;28;11596;-66
2023/12/18 05:08:26;;;;;;;;;24.75;22.25;;;;;8.05;91.75;103024.56;4952732;28;12274;-66
2023/12/18 05:10:52;;;;;;;;;39.00;34.50;;;;;8.03;91.65;103019.34;4959975;28;11560;-66
2023/12/18 05:13:18;;;;;;;;;41.00;35.75;;;;;8.03;91.68;103023.88;4954424;28;11602;-66
2023/12/18 05:15:46;;;;;;;;;33.75;32.50;;;;;8.04;91.84;103028.25;4954595;28;11573;-66
2023/12/18 05:18:12;;;;;;;;;37.00;32.50;;;;;7.98;92.31;103020.69;4964960;28;11594;-66
2023/12/18 05:20:39;;;;;;;;;37.75;34.25;;;;;7.98;92.08;103012.63;4935402;28;11609;-66
2023/12/18 05:23:05;;;;;;;;;36.50;31.25;;;;;7.93;92.32;103021.06;4952151;28;11676;-65
2023/12/18 05:25:32;;;;;;;;;32.00;30.50;;;;;7.98;92.33;103020.69;4953816;28;11601;-66
2023/12/18 05:27:58;;;;;;;;;32.00;29.50;;;;;8.01;92.65;103013.25;4971613;28;11564;-66
2023/12/18 05:30:25;;;;;;;;;40.75;34.75;;;;;8.02;92.37;103016.78;4971695;28;11550;-66
2023/12/18 05:32:51;;;;;;;;;39.50;31.00;;;;;8.06;92.41;103019.13;4954275;28;11565;-66
2023/12/18 05:35:18;;;;;;;;;36.00;30.50;;;;;8.07;92.42;103020.81;4970020;28;11553;-66
2023/12/18 05:37:44;;;;;;;;;29.25;27.50;;;;;8.03;92.27;103015.81;4971457;28;11366;-66
2023/12/18 05:40:11;;;;;;;;;29.75;27.75;;;;;8.04;92.39;103009.47;4950427;28;11677;-66
2023/12/18 05:42:38;;;;;;;;;41.50;35.75;;;;;8.04;92.28;103010.31;4952043;28;11584;-66
2023/12/18 05:45:05;;;;;;;;;35.00;29.00;;;;;7.99;92.43;103012.53;4952125;28;11593;-66
2023/12/18 05:47:31;;;;;;;;;31.00;27.50;;;;;7.98;92.55;103009.94;4960729;28;11588;-64
2023/12/18 05:49:58;;;;;;;;;34.00;32.75;;;;;7.98;92.83;103013.50;4952018;28;11692;-66
2023/12/18 05:52:25;;;;;;;;;36.75;28.75;;;;;8.03;92.67;103014.00;4952951;28;11694;-65
2023/12/18 05:54:52;;;;;;;;;32.00;30.50;;;;;8.07;92.69;103011.91;4955184;28;12457;-66
2023/12/18 05:57:19;;;;;;;;;34.50;29.50;;;;;8.02;92.42;103008.72;4958505;28;11574;-64
2023/12/18 05:59:45;;;;;;;;;39.00;32.00;;;;;7.98;92.03;103004.59;4958356;28;11733;-67
2023/12/18 06:02:12;;;;;;;;;31.50;29.75;;;;;7.96;92.60;103004.72;4958626;28;11660;-64
2023/12/18 06:04:41;;;;;;;;;33.50;30.25;;;;;7.92;93.17;103001.44;4959525;28;11555;-66
2023/12/18 06:07:09;;;;;;;;;35.75;30.50;;;;;8.01;93.33;103005.19;4941381;28;12333;-66
2023/12/18 06:09:35;;;;;;;;;34.00;30.00;;;;;7.97;92.83;103002.91;4959593;28;11584;-65
2023/12/18 06:12:02;;;;;;;;;30.25;27.75;;;;;7.92;92.90;103001.44;4967317;28;11568;-65
2023/12/18 06:14:29;;;;;;;;;36.00;30.00;;;;;7.95;93.14;103004.88;4968125;28;12420;-66
2023/12/18 06:16:55;;;;;;;;;34.25;29.75;;;;;7.97;93.38;102992.16;4967567;28;12477;-65
2023/12/18 06:19:21;;;;;;;;;42.50;34.75;;;;;7.96;93.40;102996.69;4970963;28;11597;-66
2023/12/18 06:21:48;;;;;;;;;37.25;34.50;;;;;7.95;93.02;102999.50;4967439;28;11586;-66
2023/12/18 06:24:15;;;;;;;;;28.75;27.50;;;;;7.96;93.44;102998.50;4975708;28;11699;-66
2023/12/18 06:26:41;;;;;;;;;32.00;27.25;;;;;8.06;94.08;102994.09;4960635;28;11603;-66
2023/12/18 06:29:08;;;;;;;;;41.25;31.50;;;;;8.09;93.47;102994.69;4977444;28;11556;-65
2023/12/18 06:31:34;;;;;;;;;29.25;28.25;;;;;8.14;92.76;102997.00;4977730;28;11555;-65
2023/12/18 06:34:01;;;;;;;;;39.00;31.00;;;;;8.08;92.89;103002.88;4955814;28;11636;-65
2023/12/18 06:36:28;;;;;;;;;31.50;27.75;;;;;8.10;93.35;102998.22;4972057;28;11590;-65
2023/12/18 06:38:55;;;;;;;;;34.00;28.50;;;;;8.11;93.25;102997.28;4969008;28;11619;-65
2023/12/18 06:41:22;;;;;;;;;41.50;35.00;;;;;8.05;93.14;103001.28;4965183;28;11601;-66
2023/12/18 06:43:48;;;;;;;;;34.50;30.50;;;;;8.07;93.31;102994.00;4970177;28;11595;-66
2023/12/18 06:46:14;;;;;;;;;39.25;31.25;;;;;8.11;93.72;102989.22;4967220;28;12413;-66
2023/12/18 06:48:42;;;;;;;;;28.00;27.50;;;;;8.10;93.48;102982.13;4966691;28;11607;-64
2023/12/18 06:51:12;;;;;;;;;39.00;31.25;;;;;8.09;92.82;102986.66;4957089;28;11550;-65
2023/12/18 06:53:38;;;;;;;;;33.50;29.00;;;;;8.04;92.65;102988.00;4968259;28;11592;-65
2023/12/18 06:56:05;;;;;;;;;30.75;30.00;;;;;8.05;93.31;102992.41;4965687;28;11706;-63
2023/12/18 06:58:32;;;;;;;;;32.25;29.00;;;;;8.03;93.05;102995.22;4949290;28;11563;-66
2023/12/18 07:00:58;;;;;;;;;35.50;32.50;;;;;8.03;93.32;103005.09;4951874;28;12891;-65
2023/12/18 07:03:25;;;;;;;;;41.00;34.50;;;;;8.00;93.65;102995.47;4976748;28;11648;-65
2023/12/18 07:05:53;;;;;;;;;34.50;33.75;;;;;7.96;93.32;102998.50;4975673;28;11603;-65
2023/12/18 07:08:20;;;;;;;;;36.25;35.50;;;;;7.96;93.57;102994.00;4972423;28;12359;-66
2023/12/18 07:10:47;;;;;;;;;41.00;37.75;;;;;7.93;93.21;102980.84;4974292;28;11581;-65
2023/12/18 07:13:13;;;;;;;;;31.75;27.00;;;;;8.11;95.84;102983.88;4973768;28;11703;-65
2023/12/18 07:15:40;;;;;;;;;37.25;33.25;;;;;8.09;94.20;102983.97;4955155;28;11257;-66
2023/12/18 07:18:11;;;;;;;;;34.50;28.25;;;;;8.12;93.79;102974.84;4956992;28;11574;-65
2023/12/18 07:20:38;;;;;;;;;32.00;32.00;;;;;8.10;93.21;102987.50;4955215;28;11421;-66
2023/12/18 07:23:05;;;;;;;;;27.50;23.25;;;;;8.09;94.82;102994.69;4973279;28;11572;-64
2023/12/18 07:25:31;;;;;;;;;38.50;35.75;;;;;8.16;93.94;102984.31;4973774;28;11349;-65
2023/12/18 07:27:58;;;;;;;;;41.75;32.00;;;;;8.20;93.19;102982.25;4956433;28;11481;-65
2023/12/18 07:30:24;;;;;;;;;36.25;32.50;;;;;8.19;92.92;102986.78;4956547;28;11639;-66
2023/12/18 07:32:51;;;;;;;;;34.75;31.00;;;;;8.16;92.87;102984.31;4956143;28;11597;-66
2023/12/18 07:35:18;;;;;;;;;33.25;30.50;;;;;8.07;93.22;102985.09;4970433;28;11557;-65
2023/12/18 07:37:45;;;;;;;;;35.75;31.75;;;;;8.10;93.35;102990.19;4937176;28;11603;-66
2023/12/18 07:40:11;;;;;;;;;40.50;33.50;;;;;8.10;92.88;102993.75;4961674;28;11399;-66
2023/12/18 07:42:38;;;;;;;;;36.50;33.00;;;;;8.07;93.41;102985.94;4970159;28;11571;-66
2023/12/18 07:45:05;;;;;;;;;40.00;37.25;;;;;8.06;93.54;102981.56;4973563;28;11564;-66
2023/12/18 07:47:31;;;;;;;;;30.00;30.00;;;;;8.06;93.39;102983.38;4973609;28;12324;-66
2023/12/18 07:49:58;;;;;;;;;38.25;31.75;;;;;8.08;92.87;102992.16;4972315;28;11615;-66
2023/12/18 07:52:24;;;;;;;;;41.00;36.75;;;;;8.05;93.45;102989.72;4970442;28;11580;-65
2023/12/18 07:54:51;;;;;;;;;39.00;34.00;;;;;8.09;93.87;102996.53;4937001;28;11712;-64
2023/12/18 07:57:17;;;;;;;;;42.75;40.00;;;;;8.08;93.06;102989.47;4954210;28;11653;-65
2023/12/18 07:59:44;;;;;;;;;34.00;33.50;;;;;8.02;93.77;102985.47;4956312;28;12318;-65
2023/12/18 08:02:10;;;;;;;;;33.75;30.50;;;;;8.08;94.36;102982.28;4971535;28;12375;-65
2023/12/18 08:04:37;;;;;;;;;36.25;35.25;;;;;8.06;93.51;102976.19;4972887;28;11602;-65
2023/12/18 08:07:04;;;;;;;;;48.00;38.75;;;;;7.96;94.03;102980.59;4973064;28;11537;-66
2023/12/18 08:09:31;;;;;;;;;31.50;29.00;;;;;8.01;93.59;102975.69;4971229;28;11677;-66
2023/12/18 08:11:58;;;;;;;;;37.00;33.00;;;;;7.94;94.41;102977.19;4973088;28;11597;-65
2023/12/18 08:14:25;;;;;;;;;41.25;33.75;;;;;7.93;94.41;102979.00;4954932;28;12319;-65
2023/12/18 08:16:52;;;;;;;;;41.00;34.50;;;;;7.92;94.68;102977.31;4955573;28;11590;-65
2023/12/18 08:19:18;;;;;;;;;32.75;31.00;;;;;7.96;94.70;102988.63;4971461;28;11566;-66
2023/12/18 08:21:45;;;;;;;;;37.50;34.25;;;;;8.03;94.46;102978.28;4972744;28;12367;-65
2023/12/18 08:24:12;;;;;;;;;38.00;35.50;;;;;8.03;94.15;102984.50;4970683;28;11585;-65
2023/12/18 08:26:38;;;;;;;;;36.25;34.75;;;;;8.03;94.41;102980.97;4972233;28;11702;-64
2023/12/18 08:29:05;;;;;;;;;38.25;35.75;;;;;8.02;94.39;102971.19;4972126;28;11552;-65
2023/12/18 08:31:35;;;;;;;;;48.00;38.75;;;;;8.00;94.45;102970.47;4972579;28;11561;-65
2023/12/18 08:34:01;;;;;;;;;38.00;33.75;;;;;8.02;94.76;102980.09;4954964;28;11541;-64
2023/12/18 08:36:30;;;;;;;;;42.75;37.75;;;;;8.05;94.69;102968.25;4955216;28;11602;-66
2023/12/18 08:38:56;;;;;;;;;45.75;38.50;;;;;8.09;94.51;102980.44;4972182;28;11560;-64
2023/12/18 08:41:23;;;;;;;;;30.75;30.25;;;;;8.11;94.60;102979.34;4960865;28;11662;-65
2023/12/18 08:43:49;;;;;;;;;34.00;31.00;;;;;8.13;94.79;102981.88;4952680;28;11587;-62
2023/12/18 08:46:30;;;;;;;;;38.00;32.75;;;;;8.17;93.89;102975.28;4966137;28;12235;-63
2023/12/18 08:48:57;;;;;;;;;33.25;31.50;;;;;8.10;94.30;102979.44;4972269;28;11593;-63
2023/12/18 08:51:24;;;;;;;;;40.00;36.00;;;;;8.07;94.38;102977.03;4972405;28;11579;-65
2023/12/18 08:53:50;;;;;;;;;39.50;36.50;;;;;8.07;94.85;102975.22;4971703;28;11584;-61
2023/12/18 08:56:17;;;;;;;;;41.50;34.50;;;;;8.11;94.66;102967.78;4969305;28;11608;-64
2023/12/18 08:58:43;;;;;;;;;39.25;37.75;;;;;8.13;94.05;102961.28;4953782;28;11639;-64
2023/12/18 09:01:10;;;;;;;;;40.25;38.00;;;;;8.10;93.93;102972.28;4952716;28;11600;-65
2023/12/18 09:03:36;;;;;;;;;35.25;32.25;;;;;8.15;94.17;102966.53;4935256;28;11770;-65
2023/12/18 09:06:03;;;;;;;;;48.00;39.50;;;;;8.12;94.02;102974.84;4952931;28;11600;-63
2023/12/18 09:08:39;;;;;;;;;34.25;31.00;;;;;8.16;93.90;102968.22;4935654;28;11581;-64
2023/12/18 09:11:06;;;;;;;;;41.00;33.75;;;;;8.18;94.43;102958.22;4952798;28;11565;-65
2023/12/18 09:13:37;;;;;;;;;35.75;32.75;;;;;8.12;94.45;102959.59;4954522;28;11643;-64
2023/12/18 09:16:05;;;;;;;;;33.25;31.25;;;;;8.06;94.36;102956.53;4952515;28;11601;-65
2023/12/18 09:18:32;;;;;;;;;37.50;31.00;;;;;8.12;94.36;102961.41;4952412;28;11572;-63
2023/12/18 09:20:59;;;;;;;;;32.75;30.25;;;;;8.08;94.49;102950.09;4935444;28;11573;-63
2023/12/18 09:23:26;;;;;;;;;40.75;37.00;;;;;8.03;94.46;102946.09;4952203;28;11687;-63
2023/12/18 09:25:53;;;;;;;;;34.00;30.50;;;;;8.12;94.30;102958.72;4952311;28;11593;-66
2023/12/18 09:28:20;;;;;;;;;36.75;32.25;;;;;8.10;94.45;102955.31;4936104;28;11341;-63
2023/12/18 09:30:46;;;;;;;;;31.00;27.00;;;;;8.17;94.60;102960.03;4953010;28;11570;-65
2023/12/18 09:33:13;;;;;;;;;42.25;35.00;;;;;8.23;94.00;102949.81;4934665;28;11667;-66
2023/12/18 09:35:40;;;;;;;;;39.50;34.50;;;;;8.28;94.25;102940.38;4935163;28;11591;-63
2023/12/18 09:38:06;;;;;;;;;34.25;30.00;;;;;8.31;94.13;102953.56;4934813;28;12216;-66
2023/12/18 09:40:33;;;;;;;;;41.25;34.50;;;;;8.29;93.52;102939.41;4935577;28;11585;-67
2023/12/18 09:43:02;;;;;;;;;43.50;36.75;;;;;8.30;94.08;102940.25;4952265;28;11691;-66
2023/12/18 09:45:30;;;;;;;;;33.50;30.75;;;;;8.29;93.66;102938.56;4954634;28;12305;-66
2023/12/18 09:47:57;;;;;;;;;36.75;31.75;;;;;8.34;94.17;102934.50;4952173;28;11583;-67
2023/12/18 09:50:23;;;;;;;;;36.75;33.75;;;;;8.35;93.97;102936.22;4952389;28;11593;-67
2023/12/18 09:52:59;;;;;;;;;36.25;33.75;;;;;8.36;93.56;102935.22;4952215;28;12353;-66
2023/12/18 09:55:27;;;;;;;;;40.25;36.50;;;;;8.31;93.41;102932.09;4952615;29;11582;-67
2023/12/18 09:57:56;;;;;;;;;35.50;33.50;;;;;8.31;93.55;102924.03;4952200;29;11570;-66
2023/12/18 10:00:24;;;;;;;;;35.75;31.00;;;;;8.31;93.96;102932.09;4959247;28;11559;-66
2023/12/18 10:02:52;;;;;;;;;31.75;27.00;;;;;8.31;93.64;102932.09;4971314;28;11638;-66
2023/12/18 10:05:18;;;;;;;;;37.25;34.50;;;;;8.34;93.88;102925.59;4954025;28;12316;-67
2023/12/18 10:07:45;;;;;;;;;37.25;34.00;;;;;8.32;93.36;102924.88;4971443;28;11591;-66
2023/12/18 10:10:12;;;;;;;;;37.50;31.75;;;;;8.31;93.35;102924.03;4971372;28;12282;-67
2023/12/18 10:12:38;;;;;;;;;34.75;30.25;;;;;8.34;94.36;102913.03;4954102;28;11342;-67
2023/12/18 10:15:11;;;;;;;;;36.25;32.00;;;;;8.36;93.66;102913.75;4971518;28;11577;-66
2023/12/18 10:17:38;;;;;;;;;38.00;36.75;;;;;8.32;94.10;102914.16;4968231;28;11640;-67
2023/12/18 10:20:07;;;;;;;;;36.00;33.75;;;;;8.25;94.31;102904.91;4971158;28;11382;-66
2023/12/18 10:22:34;;;;;;;;;36.00;33.25;;;;;8.31;94.56;102899.88;4971184;28;11597;-67
2023/12/18 10:25:04;;;;;;;;;32.75;31.50;;;;;8.34;94.23;102899.59;4971353;28;11609;-67
2023/12/18 10:27:32;;;;;;;;;38.50;37.00;;;;;8.31;94.31;102907.94;4954052;28;11332;-66
2023/12/18 10:29:58;;;;;;;;;36.25;28.50;;;;;8.25;94.47;102894.19;4971094;28;11583;-67
2023/12/18 10:32:28;;;;;;;;;35.75;31.25;;;;;8.31;94.79;102891.84;4934542;28;11943;-67
2023/12/18 10:34:58;;;;;;;;;33.00;29.50;;;;;8.39;94.53;102884.03;4971179;28;11562;-67
2023/12/18 10:37:29;;;;;;;;;36.25;32.50;;;;;8.45;94.38;102879.13;4953496;28;11381;-67
2023/12/18 10:40:07;;;;;;;;;36.25;34.75;;;;;8.45;94.44;102879.13;4970836;28;11556;-66
2023/12/18 10:42:36;;;;;;;;;37.50;33.50;;;;;8.40;94.40;102892.94;4973656;28;11573;-66
2023/12/18 10:45:06;;;;;;;;;34.25;29.75;;;;;8.49;93.92;102891.28;4974809;28;11595;-66
2023/12/18 10:47:34;;;;;;;;;32.00;31.00;;;;;8.57;94.04;102888.81;4956651;28;11661;-66
2023/12/18 10:50:02;;;;;;;;;37.25;30.75;;;;;8.57;93.77;102888.81;4969211;28;11245;-66
2023/12/18 10:52:30;;;;;;;;;34.50;32.00;;;;;8.58;93.88;102885.13;4974996;28;12004;-66
2023/12/18 10:54:59;;;;;;;;;38.00;34.00;;;;;8.58;93.61;102871.72;4975258;28;12136;-66
2023/12/18 10:57:26;;;;;;;;;38.75;33.00;;;;;8.55;93.62;102867.47;4975275;28;11377;-66
2023/12/18 10:59:58;;;;;;;;;37.00;31.75;;;;;8.53;93.56;102865.88;4974750;28;11389;-67
2023/12/18 11:02:26;;;;;;;;;35.25;32.25;;;;;8.63;93.78;102856.94;4974390;28;11381;-67
2023/12/18 11:04:56;;;;;;;;;32.75;29.00;;;;;8.73;93.67;102856.97;4972003;28;11367;-66
2023/12/18 11:07:25;;;;;;;;;26.25;25.00;;;;;8.82;93.18;102856.16;4955406;28;11179;-66
2023/12/18 11:09:53;;;;;;;;;36.75;33.75;;;;;8.83;92.75;102849.84;4955377;28;10997;-67
2023/12/18 11:12:23;;;;;;;;;35.00;31.50;;;;;8.71;92.89;102856.28;4937893;28;11272;-67
2023/12/18 11:15:02;;;;;;;;;31.25;30.00;;;;;8.86;92.67;102856.75;4955388;28;11709;-66
2023/12/18 11:17:36;;;;;;;;;34.75;31.50;;;;;8.86;92.19;102851.38;4937958;28;12068;-67